Aviation Digital Data Service (ADDS)

Output produced by METARs form (1201 UTC 16 July 2019)
found at http://www.aviationweather.gov/metar/data/
 
TKPK 161125Z 1612/1712 08010KT P6SM FEW022 
     FM161400 05015KT P6SM SCT020 
     FM162000 07010KT P6SM FEW020
       
TAF TKPN 161120Z 1612/1712 08011KT 9999 SCT020 
     PROB40 
     TEMPO 1703/1712 SHRA